createdAt,value
2023-05-21T00:00:15.136Z,1015.2
2023-05-21T00:05:55.680Z,1015.2
2023-05-21T00:11:30.783Z,1015.2
2023-05-21T00:16:41.280Z,1015.2
2023-05-21T00:22:29.661Z,1015.2
2023-05-21T00:27:44.348Z,1015.3
2023-05-21T00:33:25.214Z,1015.4
2023-05-21T00:38:57.734Z,1015.5
2023-05-21T00:44:30.659Z,1015.4
2023-05-21T00:50:21.192Z,1015.5
2023-05-21T00:55:48.975Z,1015.4
2023-05-21T01:01:26.534Z,1015.4
2023-05-21T01:07:02.939Z,1015.2
2023-05-21T01:12:13.147Z,1015.3
2023-05-21T01:17:48.805Z,1015.2
2023-05-21T01:28:52.411Z,1015.3
2023-05-21T01:34:36.328Z,1015.3
2023-05-21T01:40:22.856Z,1015.3
2023-05-21T01:45:38.525Z,1015.2
2023-05-21T01:51:16.395Z,1015.2
2023-05-21T01:56:46.129Z,1015.1
2023-05-21T02:02:10.289Z,1015.1
2023-05-21T02:19:12.208Z,1015
2023-05-21T02:24:43.020Z,1015
2023-05-21T02:30:05.309Z,1014.9
2023-05-21T02:35:40.516Z,1014.9
2023-05-21T02:41:05.248Z,1015
2023-05-21T02:46:47.020Z,1015
2023-05-21T02:52:19.147Z,1015.1
2023-05-21T02:57:57.727Z,1015.1
2023-05-21T03:03:20.323Z,1015.1
2023-05-21T03:09:12.833Z,1015.2
2023-05-21T03:14:32.963Z,1015.1
2023-05-21T03:20:15.973Z,1015.1
2023-05-21T03:25:32.872Z,1015.1
2023-05-21T03:31:28.596Z,1015
2023-05-21T03:36:49.326Z,1015
2023-05-21T03:42:30.001Z,1015.1
2023-05-21T03:59:09.812Z,1015.4
2023-05-21T04:04:20.469Z,1015.4
2023-05-21T04:10:09.564Z,1015.6
2023-05-21T04:15:50.149Z,1015.7
2023-05-21T04:21:18.374Z,1015.8
2023-05-21T04:26:45.350Z,1015.7
2023-05-21T04:32:28.434Z,1015.8
2023-05-21T04:37:43.474Z,1015.8
2023-05-21T04:43:18.732Z,1015.9
2023-05-21T04:48:52.461Z,1015.9
2023-05-21T04:54:26.921Z,1016
2023-05-21T05:00:18.034Z,1015.9
2023-05-21T05:05:50.714Z,1015.8
2023-05-21T05:11:21.214Z,1015.7
2023-05-21T05:16:39.119Z,1015.7
2023-05-21T05:22:29.844Z,1015.8
2023-05-21T05:27:55.214Z,1015.7
2023-05-21T05:33:13.471Z,1015.7
2023-05-21T05:38:54.953Z,1015.5
2023-05-21T05:44:28.756Z,1015.4
2023-05-21T05:49:55.816Z,1015.5
2023-05-21T05:55:24.875Z,1015.6
2023-05-21T06:00:59.835Z,1015.5
2023-05-21T06:06:59.632Z,1015.5
2023-05-21T06:12:19.244Z,1015.5
2023-05-21T06:28:59.436Z,1015.2
2023-05-21T06:34:45.451Z,1015.1
2023-05-21T06:39:59.760Z,1015
2023-05-21T06:45:37.545Z,1014.9
2023-05-21T06:51:08.059Z,1014.9
2023-05-21T06:57:00.656Z,1014.7
2023-05-21T07:02:36.740Z,1014.4
2023-05-21T07:08:01.878Z,1014.6
2023-05-21T07:13:29.002Z,1014.5
2023-05-21T07:19:12.171Z,1014.5
2023-05-21T07:24:37.710Z,1014.3
2023-05-21T07:30:28.637Z,1014.1
2023-05-21T07:35:48.723Z,1014.1
2023-05-21T07:41:26.065Z,1013.8
2023-05-21T07:46:59.549Z,1013.4
2023-05-21T07:52:31.693Z,1013.8
2023-05-21T08:03:49.089Z,1013.7
2023-05-21T08:09:33.179Z,1014
2023-05-21T08:14:52.825Z,1013.6
2023-05-21T08:20:27.118Z,1013.6
2023-05-21T08:26:10.200Z,1013.8
2023-05-21T08:31:55.735Z,1013.8
2023-05-21T08:37:26.582Z,1013.8
2023-05-21T08:42:50.690Z,1013.6
2023-05-21T08:54:20.653Z,1013.4
2023-05-21T08:59:43.023Z,1013
2023-05-21T09:05:39.712Z,1013.2
2023-05-21T09:10:57.748Z,1013.3
2023-05-21T09:16:25.638Z,1013.1
2023-05-21T09:22:20.340Z,1013
2023-05-21T09:27:45.151Z,1013.1
2023-05-21T09:33:15.532Z,1013.1
2023-05-21T09:39:14.331Z,1013.2
2023-05-21T09:44:29.176Z,1013
2023-05-21T09:50:11.031Z,1012.8
2023-05-21T09:56:06.407Z,1013
2023-05-21T10:01:32.752Z,1013
2023-05-21T10:07:02.253Z,1013
2023-05-21T10:12:42.035Z,1012.7
2023-05-21T10:18:10.704Z,1012.4
2023-05-21T10:24:05.492Z,1012.2
2023-05-21T10:29:22.465Z,1012
2023-05-21T10:35:12.687Z,1011.9
2023-05-21T10:41:02.579Z,1012
2023-05-21T10:46:17.703Z,1012
2023-05-21T10:51:58.226Z,1012
2023-05-21T10:57:41.306Z,1011.8
2023-05-21T11:08:43.356Z,1011.5
2023-05-21T11:14:24.432Z,1011.6
2023-05-21T11:20:20.966Z,1011.6
2023-05-21T11:25:36.667Z,1011.4
2023-05-21T11:31:37.703Z,1011.5
2023-05-21T11:36:54.278Z,1011.3
2023-05-21T11:42:30.031Z,1011.1
2023-05-21T11:48:23.854Z,1011.4
2023-05-21T11:54:07.833Z,1011.5
2023-05-21T11:59:49.388Z,1011.4
2023-05-21T12:05:29.369Z,1011.2
2023-05-21T12:11:01.247Z,1011.1
2023-05-21T12:16:28.011Z,1011.5
2023-05-21T12:21:57.000Z,1011.1
2023-05-21T12:27:35.223Z,1011.3
2023-05-21T12:33:32.225Z,1010.8
2023-05-21T12:39:02.995Z,1011.1
2023-05-21T12:44:54.449Z,1010.8
2023-05-21T12:50:19.740Z,1011.2
2023-05-21T12:55:46.934Z,1011
2023-05-21T13:01:29.596Z,1011
2023-05-21T13:07:24.877Z,1011.1
2023-05-21T13:13:03.735Z,1011
2023-05-21T13:18:24.153Z,1010.7
2023-05-21T13:24:24.102Z,1010.9
2023-05-21T13:30:05.663Z,1010.8
2023-05-21T13:35:39.671Z,1010.7
2023-05-21T13:41:14.496Z,1010.7
2023-05-21T13:46:44.328Z,1010.7
2023-05-21T13:52:15.135Z,1010.5
2023-05-21T13:58:02.332Z,1010.5
2023-05-21T14:04:00.087Z,1010.3
2023-05-21T14:09:17.976Z,1010.3
2023-05-21T14:14:51.241Z,1010.1
2023-05-21T14:20:38.106Z,1010.2
2023-05-21T14:26:30.087Z,1010
2023-05-21T14:32:06.499Z,1009.8
2023-05-21T14:49:15.740Z,1009.9
2023-05-21T14:54:27.132Z,1009.9
2023-05-21T15:00:15.052Z,1009.7
2023-05-21T15:06:05.933Z,1009.8
2023-05-21T15:17:18.126Z,1009.7
2023-05-21T15:23:08.721Z,1009.6
2023-05-21T15:34:26.909Z,1009.6
2023-05-21T15:39:51.079Z,1009.8
2023-05-21T15:45:42.480Z,1009.8
2023-05-21T15:51:06.530Z,1009.9
2023-05-21T15:57:02.483Z,1009.9
2023-05-21T16:02:18.981Z,1009.9
2023-05-21T16:13:39.058Z,1010
2023-05-21T16:19:38.020Z,1009.9
2023-05-21T16:25:06.585Z,1010
2023-05-21T16:30:37.299Z,1009.9
2023-05-21T16:36:23.524Z,1010.3
2023-05-21T16:41:47.851Z,1010.5
2023-05-21T16:47:43.588Z,1010.8
2023-05-21T17:04:20.617Z,1011.4
2023-05-21T17:09:50.601Z,1011.5
2023-05-21T17:15:24.951Z,1011.4
2023-05-21T17:21:16.760Z,1011.5
2023-05-21T17:26:48.284Z,1011.7
2023-05-21T17:32:25.180Z,1011.4
2023-05-21T17:37:48.739Z,1011.4
2023-05-21T17:43:33.827Z,1011.5
2023-05-21T17:49:04.123Z,1011.6
2023-05-21T17:54:26.038Z,1011.7
2023-05-21T18:00:27.195Z,1011.8
2023-05-21T18:05:46.148Z,1011.8
2023-05-21T18:11:22.989Z,1011.7
2023-05-21T18:17:03.486Z,1011.8
2023-05-21T18:22:30.056Z,1012.1
2023-05-21T18:28:15.882Z,1012.4
2023-05-21T18:33:52.445Z,1012.3
2023-05-21T18:39:31.057Z,1012.4
2023-05-21T18:44:44.217Z,1012.3
2023-05-21T18:50:18.427Z,1012.4
2023-05-21T18:56:02.141Z,1012.7
2023-05-21T19:01:29.061Z,1013.7
2023-05-21T19:07:07.419Z,1014.2
2023-05-21T19:12:50.386Z,1014.4
2023-05-21T19:23:53.856Z,1014.9
2023-05-21T19:29:51.566Z,1015.4
2023-05-21T19:35:16.841Z,1015.6
2023-05-21T19:40:44.193Z,1015.4
2023-05-21T19:46:25.659Z,1014.9
2023-05-21T19:52:07.993Z,1015.5
2023-05-21T19:57:27.444Z,1015.8
2023-05-21T20:08:27.867Z,1016
2023-05-21T20:14:11.467Z,1016
2023-05-21T20:19:59.361Z,1016.1
2023-05-21T20:25:12.464Z,1016.1
2023-05-21T20:30:46.633Z,1016.4
2023-05-21T20:36:23.886Z,1016.4
2023-05-21T20:41:58.895Z,1016.4
2023-05-21T20:59:01.409Z,1016.8
2023-05-21T21:04:19.895Z,1016.8
2023-05-21T21:09:52.115Z,1016.8
2023-05-21T21:15:29.334Z,1016.9
2023-05-21T21:20:57.043Z,1017
2023-05-21T21:26:43.500Z,1017
2023-05-21T21:32:07.820Z,1017.3
2023-05-21T21:38:04.639Z,1017.2
2023-05-21T21:49:10.809Z,1017.2
2023-05-21T21:54:42.283Z,1017.3
2023-05-21T22:00:13.256Z,1017.4
2023-05-21T22:05:46.929Z,1017.7
2023-05-21T22:11:34.430Z,1018
2023-05-21T22:16:56.123Z,1018
2023-05-21T22:22:25.724Z,1018
2023-05-21T22:28:11.225Z,1018.1
2023-05-21T22:33:49.091Z,1017.8
2023-05-21T22:39:15.030Z,1017.9
2023-05-21T22:44:39.555Z,1017.6
2023-05-21T22:50:31.471Z,1017.7
2023-05-21T22:55:44.056Z,1017.5
2023-05-21T23:01:35.471Z,1017.4
2023-05-21T23:06:56.197Z,1017.3
2023-05-21T23:12:28.285Z,1017.3
2023-05-21T23:18:09.109Z,1017
2023-05-21T23:29:33.253Z,1016.1
2023-05-21T23:34:43.916Z,1016.4
2023-05-21T23:40:32.744Z,1016.6
2023-05-21T23:45:57.533Z,1016.4
2023-05-21T23:51:53.514Z,1016.3
2023-05-21T23:57:17.898Z,1016.5
